sensor_id;sensor_type;location;lat;lon;timestamp;pressure;altitude;pressure_sealevel;temperature;humidity
39613;BME280;25303;48.896;13.342;2023-01-24T00:02:17;93992.44;;;2.45;59.09
39613;BME280;25303;48.896;13.342;2023-01-24T00:04:59;94000.50;;;2.53;59.27
39613;BME280;25303;48.896;13.342;2023-01-24T00:07:42;94000.34;;;2.56;59.33
39613;BME280;25303;48.896;13.342;2023-01-24T00:10:25;93994.94;;;2.62;59.38
39613;BME280;25303;48.896;13.342;2023-01-24T00:13:09;93999.97;;;2.64;59.58
39613;BME280;25303;48.896;13.342;2023-01-24T00:16:02;94005.53;;;2.70;59.31
39613;BME280;25303;48.896;13.342;2023-01-24T00:18:47;94002.00;;;2.73;59.81
39613;BME280;25303;48.896;13.342;2023-01-24T00:21:30;93987.75;;;2.70;60.68
39613;BME280;25303;48.896;13.342;2023-01-24T00:24:12;93991.59;;;2.94;60.11
39613;BME280;25303;48.896;13.342;2023-01-24T00:26:55;93986.66;;;3.07;59.81
39613;BME280;25303;48.896;13.342;2023-01-24T00:29:38;93995.34;;;3.18;59.53
39613;BME280;25303;48.896;13.342;2023-01-24T00:32:21;94000.91;;;3.25;59.27
39613;BME280;25303;48.896;13.342;2023-01-24T00:35:06;93992.16;;;3.31;59.29
39613;BME280;25303;48.896;13.342;2023-01-24T00:37:49;93997.88;;;3.34;59.01
39613;BME280;25303;48.896;13.342;2023-01-24T00:40:32;93994.34;;;3.37;59.13
39613;BME280;25303;48.896;13.342;2023-01-24T00:43:14;94000.91;;;3.41;59.03
39613;BME280;25303;48.896;13.342;2023-01-24T00:45:57;93992.09;;;3.47;59.14
39613;BME280;25303;48.896;13.342;2023-01-24T00:48:40;93993.75;;;3.48;59.05
39613;BME280;25303;48.896;13.342;2023-01-24T00:51:25;93997.03;;;3.50;59.11
39613;BME280;25303;48.896;13.342;2023-01-24T00:54:08;93995.97;;;3.54;59.19
39613;BME280;25303;48.896;13.342;2023-01-24T00:56:50;93997.59;;;3.55;59.13
39613;BME280;25303;48.896;13.342;2023-01-24T00:59:34;93993.22;;;3.57;58.96
39613;BME280;25303;48.896;13.342;2023-01-24T01:02:19;93992.25;;;3.60;59.22
39613;BME280;25303;48.896;13.342;2023-01-24T01:05:02;94003.06;;;3.63;59.43
39613;BME280;25303;48.896;13.342;2023-01-24T01:07:47;94008.47;;;3.73;59.10
39613;BME280;25303;48.896;13.342;2023-01-24T01:10:29;94002.03;;;3.82;59.04
39613;BME280;25303;48.896;13.342;2023-01-24T01:13:12;94008.59;;;3.86;58.79
39613;BME280;25303;48.896;13.342;2023-01-24T01:16:03;94007.84;;;3.84;58.77
39613;BME280;25303;48.896;13.342;2023-01-24T01:18:46;94005.59;;;3.79;58.72
39613;BME280;25303;48.896;13.342;2023-01-24T01:21:29;93994.19;;;3.71;58.62
39613;BME280;25303;48.896;13.342;2023-01-24T01:24:14;94003.53;;;3.70;58.75
39613;BME280;25303;48.896;13.342;2023-01-24T01:26:57;93997.88;;;3.65;59.08
39613;BME280;25303;48.896;13.342;2023-01-24T01:29:39;93996.91;;;3.68;58.92
39613;BME280;25303;48.896;13.342;2023-01-24T01:32:22;93993.72;;;3.64;59.01
39613;BME280;25303;48.896;13.342;2023-01-24T01:35:06;93994.41;;;3.66;59.14
39613;BME280;25303;48.896;13.342;2023-01-24T01:37:48;93993.28;;;3.72;59.13
39613;BME280;25303;48.896;13.342;2023-01-24T01:40:33;93982.25;;;3.71;59.63
39613;BME280;25303;48.896;13.342;2023-01-24T01:43:18;93979.38;;;3.77;59.81
39613;BME280;25303;48.896;13.342;2023-01-24T01:46:07;93989.19;;;3.84;59.51
39613;BME280;25303;48.896;13.342;2023-01-24T01:49:01;93990.03;;;3.84;59.39
39613;BME280;25303;48.896;13.342;2023-01-24T01:51:47;93990.66;;;3.88;59.09
39613;BME280;25303;48.896;13.342;2023-01-24T01:54:35;93975.06;;;3.63;59.37
39613;BME280;25303;48.896;13.342;2023-01-24T01:57:23;93975.16;;;3.62;59.46
39613;BME280;25303;48.896;13.342;2023-01-24T02:00:12;93986.72;;;3.68;59.57
39613;BME280;25303;48.896;13.342;2023-01-24T02:03:01;93987.44;;;3.70;59.44
39613;BME280;25303;48.896;13.342;2023-01-24T02:05:59;93996.03;;;3.83;58.99
39613;BME280;25303;48.896;13.342;2023-01-24T02:08:42;93991.56;;;3.87;58.76
39613;BME280;25303;48.896;13.342;2023-01-24T02:11:27;93993.13;;;3.89;58.69
39613;BME280;25303;48.896;13.342;2023-01-24T02:14:23;93982.66;;;3.79;58.72
39613;BME280;25303;48.896;13.342;2023-01-24T02:17:25;93980.09;;;3.79;58.70
39613;BME280;25303;48.896;13.342;2023-01-24T02:20:21;93983.72;;;3.75;59.09
39613;BME280;25303;48.896;13.342;2023-01-24T02:23:15;93977.56;;;3.79;58.67
39613;BME280;25303;48.896;13.342;2023-01-24T02:26:05;93985.44;;;3.75;58.70
39613;BME280;25303;48.896;13.342;2023-01-24T02:28:51;93987.19;;;3.74;58.51
39613;BME280;25303;48.896;13.342;2023-01-24T02:31:54;93981.78;;;3.64;58.86
39613;BME280;25303;48.896;13.342;2023-01-24T02:34:37;93985.88;;;3.67;58.68
39613;BME280;25303;48.896;13.342;2023-01-24T02:37:20;93985.13;;;3.65;58.97
39613;BME280;25303;48.896;13.342;2023-01-24T02:40:07;93983.59;;;3.62;59.04
39613;BME280;25303;48.896;13.342;2023-01-24T02:42:54;93988.69;;;3.62;59.12
39613;BME280;25303;48.896;13.342;2023-01-24T02:45:37;93997.97;;;3.63;58.89
39613;BME280;25303;48.896;13.342;2023-01-24T02:48:20;93986.97;;;3.63;59.08
39613;BME280;25303;48.896;13.342;2023-01-24T02:51:04;93996.44;;;3.61;59.05
39613;BME280;25303;48.896;13.342;2023-01-24T02:54:04;93994.06;;;3.58;59.29
39613;BME280;25303;48.896;13.342;2023-01-24T02:56:47;93994.97;;;3.57;59.43
39613;BME280;25303;48.896;13.342;2023-01-24T02:59:49;93996.50;;;3.59;59.10
39613;BME280;25303;48.896;13.342;2023-01-24T03:02:32;93999.94;;;3.58;59.12
39613;BME280;25303;48.896;13.342;2023-01-24T03:05:16;93991.66;;;3.55;59.23
39613;BME280;25303;48.896;13.342;2023-01-24T03:07:58;93992.84;;;3.49;58.94
39613;BME280;25303;48.896;13.342;2023-01-24T03:10:41;93990.56;;;3.44;59.08
39613;BME280;25303;48.896;13.342;2023-01-24T03:13:24;93989.72;;;3.44;59.17
39613;BME280;25303;48.896;13.342;2023-01-24T03:16:29;93990.41;;;3.31;58.96
39613;BME280;25303;48.896;13.342;2023-01-24T03:19:29;93992.22;;;3.29;59.24
39613;BME280;25303;48.896;13.342;2023-01-24T03:22:30;93990.00;;;3.23;59.62
39613;BME280;25303;48.896;13.342;2023-01-24T03:25:30;93990.56;;;3.28;59.68
39613;BME280;25303;48.896;13.342;2023-01-24T03:28:30;94001.50;;;3.30;59.64
39613;BME280;25303;48.896;13.342;2023-01-24T03:31:32;93998.03;;;3.31;59.59
39613;BME280;25303;48.896;13.342;2023-01-24T03:34:35;94005.03;;;3.28;59.66
39613;BME280;25303;48.896;13.342;2023-01-24T03:37:29;93995.59;;;3.30;59.95
39613;BME280;25303;48.896;13.342;2023-01-24T03:40:31;93998.84;;;3.32;59.89
39613;BME280;25303;48.896;13.342;2023-01-24T03:43:14;94002.50;;;3.28;59.77
39613;BME280;25303;48.896;13.342;2023-01-24T03:45:57;94002.41;;;3.29;59.46
39613;BME280;25303;48.896;13.342;2023-01-24T03:48:56;94000.50;;;3.33;59.61
39613;BME280;25303;48.896;13.342;2023-01-24T03:51:47;94004.69;;;3.34;59.44
39613;BME280;25303;48.896;13.342;2023-01-24T03:54:48;94004.63;;;3.36;59.61
39613;BME280;25303;48.896;13.342;2023-01-24T03:57:31;94001.22;;;3.35;59.08
39613;BME280;25303;48.896;13.342;2023-01-24T04:00:20;94006.00;;;3.25;59.02
39613;BME280;25303;48.896;13.342;2023-01-24T04:03:10;94007.41;;;3.15;58.86
39613;BME280;25303;48.896;13.342;2023-01-24T04:05:54;94003.00;;;3.02;59.13
39613;BME280;25303;48.896;13.342;2023-01-24T04:08:37;93999.97;;;2.96;59.47
39613;BME280;25303;48.896;13.342;2023-01-24T04:11:20;94000.03;;;2.94;59.38
39613;BME280;25303;48.896;13.342;2023-01-24T04:14:07;93990.84;;;2.92;59.60
39613;BME280;25303;48.896;13.342;2023-01-24T04:16:59;93999.53;;;2.87;59.38
39613;BME280;25303;48.896;13.342;2023-01-24T04:19:51;93999.53;;;2.87;59.46
39613;BME280;25303;48.896;13.342;2023-01-24T04:22:36;94003.09;;;2.85;59.02
39613;BME280;25303;48.896;13.342;2023-01-24T04:25:19;93994.13;;;2.78;59.22
39613;BME280;25303;48.896;13.342;2023-01-24T04:28:02;93998.31;;;2.79;59.49
39613;BME280;25303;48.896;13.342;2023-01-24T04:30:47;93996.66;;;2.78;59.50
39613;BME280;25303;48.896;13.342;2023-01-24T04:33:46;93995.91;;;2.76;59.38
39613;BME280;25303;48.896;13.342;2023-01-24T04:36:30;93995.19;;;2.73;59.50
39613;BME280;25303;48.896;13.342;2023-01-24T04:39:15;93984.34;;;2.70;59.49
39613;BME280;25303;48.896;13.342;2023-01-24T04:42:09;93989.53;;;2.68;59.50
39613;BME280;25303;48.896;13.342;2023-01-24T04:44:53;93981.00;;;2.69;59.65
39613;BME280;25303;48.896;13.342;2023-01-24T04:47:38;93982.66;;;2.70;59.83
39613;BME280;25303;48.896;13.342;2023-01-24T04:50:22;93985.00;;;2.73;59.66
39613;BME280;25303;48.896;13.342;2023-01-24T04:53:05;93985.09;;;2.72;59.76
39613;BME280;25303;48.896;13.342;2023-01-24T04:55:50;93987.56;;;2.73;59.97
39613;BME280;25303;48.896;13.342;2023-01-24T04:58:34;93988.38;;;2.74;59.80
39613;BME280;25303;48.896;13.342;2023-01-24T05:01:18;93982.47;;;2.73;59.92
39613;BME280;25303;48.896;13.342;2023-01-24T05:04:13;93990.03;;;2.75;59.88
39613;BME280;25303;48.896;13.342;2023-01-24T05:06:57;93992.47;;;2.77;60.01
39613;BME280;25303;48.896;13.342;2023-01-24T05:09:40;93992.31;;;2.80;60.06
39613;BME280;25303;48.896;13.342;2023-01-24T05:12:26;93998.91;;;2.84;60.18
39613;BME280;25303;48.896;13.342;2023-01-24T05:15:13;93995.44;;;2.85;59.94
39613;BME280;25303;48.896;13.342;2023-01-24T05:17:56;93992.91;;;2.85;59.93
39613;BME280;25303;48.896;13.342;2023-01-24T05:20:40;93992.06;;;2.84;60.08
39613;BME280;25303;48.896;13.342;2023-01-24T05:23:23;93991.25;;;2.84;59.89
39613;BME280;25303;48.896;13.342;2023-01-24T05:26:06;93998.00;;;2.85;59.79
39613;BME280;25303;48.896;13.342;2023-01-24T05:28:52;93999.63;;;2.86;59.91
39613;BME280;25303;48.896;13.342;2023-01-24T05:31:37;94003.00;;;2.86;59.75
39613;BME280;25303;48.896;13.342;2023-01-24T05:34:20;94007.34;;;2.84;59.63
39613;BME280;25303;48.896;13.342;2023-01-24T05:37:03;94011.88;;;2.79;59.81
39613;BME280;25303;48.896;13.342;2023-01-24T05:39:49;94017.91;;;2.77;59.74
39613;BME280;25303;48.896;13.342;2023-01-24T05:42:32;94014.63;;;2.74;59.69
39613;BME280;25303;48.896;13.342;2023-01-24T05:45:17;94015.31;;;2.78;59.87
39613;BME280;25303;48.896;13.342;2023-01-24T05:48:00;94020.44;;;2.77;59.75
39613;BME280;25303;48.896;13.342;2023-01-24T05:50:43;94021.44;;;2.74;59.81
39613;BME280;25303;48.896;13.342;2023-01-24T05:53:29;94024.00;;;2.74;59.48
39613;BME280;25303;48.896;13.342;2023-01-24T05:56:15;94034.06;;;2.76;59.75
39613;BME280;25303;48.896;13.342;2023-01-24T05:58:59;94030.97;;;2.70;59.49
39613;BME280;25303;48.896;13.342;2023-01-24T06:01:44;94041.53;;;2.63;59.51
39613;BME280;25303;48.896;13.342;2023-01-24T06:04:28;94047.56;;;2.60;59.57
39613;BME280;25303;48.896;13.342;2023-01-24T06:07:11;94056.28;;;2.56;59.62
39613;BME280;25303;48.896;13.342;2023-01-24T06:09:55;94053.00;;;2.54;59.64
39613;BME280;25303;48.896;13.342;2023-01-24T06:12:39;94050.59;;;2.51;59.85
39613;BME280;25303;48.896;13.342;2023-01-24T06:15:22;94059.03;;;2.51;59.63
39613;BME280;25303;48.896;13.342;2023-01-24T06:18:12;94059.22;;;2.48;59.74
39613;BME280;25303;48.896;13.342;2023-01-24T06:20:58;94066.84;;;2.48;59.93
39613;BME280;25303;48.896;13.342;2023-01-24T06:23:41;94071.09;;;2.48;59.74
39613;BME280;25303;48.896;13.342;2023-01-24T06:26:25;94076.25;;;2.46;60.04
39613;BME280;25303;48.896;13.342;2023-01-24T06:29:09;94078.06;;;2.44;59.88
39613;BME280;25303;48.896;13.342;2023-01-24T06:31:59;94082.38;;;2.42;59.87
39613;BME280;25303;48.896;13.342;2023-01-24T06:35:00;94088.38;;;2.41;59.86
39613;BME280;25303;48.896;13.342;2023-01-24T06:37:50;94082.44;;;2.40;59.93
39613;BME280;25303;48.896;13.342;2023-01-24T06:40:34;94082.44;;;2.40;60.12
39613;BME280;25303;48.896;13.342;2023-01-24T06:43:17;94083.53;;;2.36;60.13
39613;BME280;25303;48.896;13.342;2023-01-24T06:46:00;94086.88;;;2.37;60.07
39613;BME280;25303;48.896;13.342;2023-01-24T06:48:43;94091.00;;;2.39;60.32
39613;BME280;25303;48.896;13.342;2023-01-24T06:51:27;94101.22;;;2.38;60.10
39613;BME280;25303;48.896;13.342;2023-01-24T06:54:10;94098.69;;;2.38;60.19
39613;BME280;25303;48.896;13.342;2023-01-24T06:56:53;94103.91;;;2.35;60.14
39613;BME280;25303;48.896;13.342;2023-01-24T06:59:36;94104.16;;;2.30;60.33
39613;BME280;25303;48.896;13.342;2023-01-24T07:02:19;94110.88;;;2.31;60.40
39613;BME280;25303;48.896;13.342;2023-01-24T07:05:02;94106.63;;;2.32;60.33
39613;BME280;25303;48.896;13.342;2023-01-24T07:07:46;94117.69;;;2.31;60.52
39613;BME280;25303;48.896;13.342;2023-01-24T07:10:29;94116.94;;;2.28;60.38
39613;BME280;25303;48.896;13.342;2023-01-24T07:13:11;94122.78;;;2.31;60.39
39613;BME280;25303;48.896;13.342;2023-01-24T07:15:54;94126.88;;;2.33;60.50
39613;BME280;25303;48.896;13.342;2023-01-24T07:18:38;94125.97;;;2.34;60.27
39613;BME280;25303;48.896;13.342;2023-01-24T07:21:21;94135.25;;;2.35;60.33
39613;BME280;25303;48.896;13.342;2023-01-24T07:24:09;94138.44;;;2.39;60.52
39613;BME280;25303;48.896;13.342;2023-01-24T07:26:55;94137.41;;;2.43;60.61
39613;BME280;25303;48.896;13.342;2023-01-24T07:29:38;94144.28;;;2.41;60.60
39613;BME280;25303;48.896;13.342;2023-01-24T07:32:21;94149.28;;;2.42;60.72
39613;BME280;25303;48.896;13.342;2023-01-24T07:35:05;94149.06;;;2.47;60.49
39613;BME280;25303;48.896;13.342;2023-01-24T07:37:48;94143.91;;;2.49;60.57
39613;BME280;25303;48.896;13.342;2023-01-24T07:40:33;94150.53;;;2.51;60.63
39613;BME280;25303;48.896;13.342;2023-01-24T07:43:18;94155.50;;;2.54;60.58
39613;BME280;25303;48.896;13.342;2023-01-24T07:46:02;94147.81;;;2.56;60.60
39613;BME280;25303;48.896;13.342;2023-01-24T07:48:45;94151.81;;;2.60;60.63
39613;BME280;25303;48.896;13.342;2023-01-24T07:51:28;94162.66;;;2.64;60.51
39613;BME280;25303;48.896;13.342;2023-01-24T07:54:12;94159.00;;;2.69;60.64
39613;BME280;25303;48.896;13.342;2023-01-24T07:56:56;94164.44;;;2.79;60.78
39613;BME280;25303;48.896;13.342;2023-01-24T07:59:39;94159.72;;;2.89;60.85
39613;BME280;25303;48.896;13.342;2023-01-24T08:02:22;94168.66;;;2.96;60.73
39613;BME280;25303;48.896;13.342;2023-01-24T08:05:05;94170.06;;;3.02;60.69
39613;BME280;25303;48.896;13.342;2023-01-24T08:07:48;94171.41;;;3.09;60.65
39613;BME280;25303;48.896;13.342;2023-01-24T08:10:31;94165.78;;;3.20;60.85
39613;BME280;25303;48.896;13.342;2023-01-24T08:13:15;94164.53;;;3.27;60.58
39613;BME280;25303;48.896;13.342;2023-01-24T08:15:59;94171.72;;;3.37;60.58
39613;BME280;25303;48.896;13.342;2023-01-24T08:18:42;94174.66;;;3.45;60.58
39613;BME280;25303;48.896;13.342;2023-01-24T08:21:25;94173.34;;;3.54;60.63
39613;BME280;25303;48.896;13.342;2023-01-24T08:24:08;94171.22;;;3.62;60.37
39613;BME280;25303;48.896;13.342;2023-01-24T08:26:51;94168.28;;;3.70;60.21
39613;BME280;25303;48.896;13.342;2023-01-24T08:29:35;94170.31;;;3.79;59.95
39613;BME280;25303;48.896;13.342;2023-01-24T08:32:18;94167.28;;;3.88;60.05
39613;BME280;25303;48.896;13.342;2023-01-24T08:35:01;94166.75;;;3.98;60.18
39613;BME280;25303;48.896;13.342;2023-01-24T08:37:44;94171.28;;;4.08;59.91
39613;BME280;25303;48.896;13.342;2023-01-24T08:40:27;94174.03;;;4.20;59.71
39613;BME280;25303;48.896;13.342;2023-01-24T08:43:21;94179.72;;;4.25;59.33
39613;BME280;25303;48.896;13.342;2023-01-24T08:46:05;94175.53;;;4.24;59.33
39613;BME280;25303;48.896;13.342;2023-01-24T08:48:48;94173.97;;;4.21;59.06
39613;BME280;25303;48.896;13.342;2023-01-24T08:51:31;94177.44;;;4.20;59.15
39613;BME280;25303;48.896;13.342;2023-01-24T08:54:14;94176.25;;;4.26;59.42
39613;BME280;25303;48.896;13.342;2023-01-24T08:56:57;94173.13;;;4.37;59.52
39613;BME280;25303;48.896;13.342;2023-01-24T08:59:40;94175.69;;;4.51;59.49
39613;BME280;25303;48.896;13.342;2023-01-24T09:02:24;94171.00;;;4.74;59.67
39613;BME280;25303;48.896;13.342;2023-01-24T09:05:08;94172.75;;;5.02;59.47
39613;BME280;25303;48.896;13.342;2023-01-24T09:07:51;94169.28;;;5.32;59.57
39613;BME280;25303;48.896;13.342;2023-01-24T09:10:34;94170.19;;;5.60;58.85
39613;BME280;25303;48.896;13.342;2023-01-24T09:13:17;94177.06;;;5.87;58.52
39613;BME280;25303;48.896;13.342;2023-01-24T09:16:00;94186.25;;;6.04;57.92
39613;BME280;25303;48.896;13.342;2023-01-24T09:18:44;94187.31;;;6.15;57.10
39613;BME280;25303;48.896;13.342;2023-01-24T09:21:27;94185.97;;;6.09;56.64
39613;BME280;25303;48.896;13.342;2023-01-24T09:24:10;94180.75;;;6.11;56.50
39613;BME280;25303;48.896;13.342;2023-01-24T09:26:53;94182.94;;;6.17;56.57
39613;BME280;25303;48.896;13.342;2023-01-24T09:29:36;94177.56;;;6.34;57.09
39613;BME280;25303;48.896;13.342;2023-01-24T09:32:18;94188.34;;;6.52;56.52
39613;BME280;25303;48.896;13.342;2023-01-24T09:35:04;94193.41;;;6.67;55.91
39613;BME280;25303;48.896;13.342;2023-01-24T09:37:47;94195.38;;;6.76;55.45
39613;BME280;25303;48.896;13.342;2023-01-24T09:40:39;94193.22;;;6.83;55.06
39613;BME280;25303;48.896;13.342;2023-01-24T09:43:40;94189.22;;;6.79;54.80
39613;BME280;25303;48.896;13.342;2023-01-24T09:46:28;94196.56;;;6.71;54.88
39613;BME280;25303;48.896;13.342;2023-01-24T09:49:15;94187.84;;;6.60;54.75
39613;BME280;25303;48.896;13.342;2023-01-24T09:52:02;94188.47;;;6.51;55.00
39613;BME280;25303;48.896;13.342;2023-01-24T09:54:51;94182.78;;;6.33;54.79
39613;BME280;25303;48.896;13.342;2023-01-24T09:57:48;94185.81;;;6.25;55.26
39613;BME280;25303;48.896;13.342;2023-01-24T10:00:35;94183.69;;;6.32;55.63
39613;BME280;25303;48.896;13.342;2023-01-24T10:03:20;94178.31;;;6.36;55.52
39613;BME280;25303;48.896;13.342;2023-01-24T10:06:07;94185.69;;;6.41;55.08
39613;BME280;25303;48.896;13.342;2023-01-24T10:08:57;94181.50;;;6.53;55.09
39613;BME280;25303;48.896;13.342;2023-01-24T10:11:48;94183.44;;;6.49;54.37
39613;BME280;25303;48.896;13.342;2023-01-24T10:14:47;94177.50;;;6.49;54.57
39613;BME280;25303;48.896;13.342;2023-01-24T10:17:54;94175.25;;;6.44;54.73
39613;BME280;25303;48.896;13.342;2023-01-24T10:21:00;94170.50;;;6.38;54.39
39613;BME280;25303;48.896;13.342;2023-01-24T10:23:52;94176.47;;;6.51;54.64
39613;BME280;25303;48.896;13.342;2023-01-24T10:26:42;94176.09;;;6.71;54.96
39613;BME280;25303;48.896;13.342;2023-01-24T10:29:30;94167.22;;;6.89;55.10
39613;BME280;25303;48.896;13.342;2023-01-24T10:32:15;94175.41;;;7.07;54.78
39613;BME280;25303;48.896;13.342;2023-01-24T10:35:02;94171.91;;;7.21;54.71
39613;BME280;25303;48.896;13.342;2023-01-24T10:37:57;94177.34;;;7.29;54.17
39613;BME280;25303;48.896;13.342;2023-01-24T10:40:50;94174.38;;;7.36;54.17
39613;BME280;25303;48.896;13.342;2023-01-24T10:43:34;94168.09;;;7.40;53.93
39613;BME280;25303;48.896;13.342;2023-01-24T10:46:36;94160.94;;;7.45;53.44
39613;BME280;25303;48.896;13.342;2023-01-24T10:49:26;94156.72;;;7.57;54.08
39613;BME280;25303;48.896;13.342;2023-01-24T10:52:12;94156.19;;;7.65;53.76
39613;BME280;25303;48.896;13.342;2023-01-24T10:54:57;94156.44;;;7.73;53.68
39613;BME280;25303;48.896;13.342;2023-01-24T10:57:42;94147.75;;;7.75;53.07
39613;BME280;25303;48.896;13.342;2023-01-24T11:00:29;94153.34;;;7.81;53.50
39613;BME280;25303;48.896;13.342;2023-01-24T11:03:20;94152.44;;;7.82;53.34
39613;BME280;25303;48.896;13.342;2023-01-24T11:06:04;94142.81;;;7.85;53.39
39613;BME280;25303;48.896;13.342;2023-01-24T11:08:53;94141.44;;;7.93;53.26
39613;BME280;25303;48.896;13.342;2023-01-24T11:11:40;94147.84;;;7.98;53.05
39613;BME280;25303;48.896;13.342;2023-01-24T11:14:26;94141.72;;;8.01;52.86
39613;BME280;25303;48.896;13.342;2023-01-24T11:17:29;94147.75;;;8.00;52.29
39613;BME280;25303;48.896;13.342;2023-01-24T11:20:22;94152.56;;;8.04;52.37
39613;BME280;25303;48.896;13.342;2023-01-24T11:23:12;94152.56;;;8.04;52.35
39613;BME280;25303;48.896;13.342;2023-01-24T11:25:58;94145.59;;;8.06;52.45
39613;BME280;25303;48.896;13.342;2023-01-24T11:28:42;94141.97;;;8.09;52.56
39613;BME280;25303;48.896;13.342;2023-01-24T11:31:33;94135.00;;;8.11;52.25
39613;BME280;25303;48.896;13.342;2023-01-24T11:34:35;94136.63;;;8.12;52.26
39613;BME280;25303;48.896;13.342;2023-01-24T11:37:35;94136.41;;;8.15;52.15
39613;BME280;25303;48.896;13.342;2023-01-24T11:40:28;94135.94;;;8.21;52.43
39613;BME280;25303;48.896;13.342;2023-01-24T11:43:25;94133.16;;;8.25;52.05
39613;BME280;25303;48.896;13.342;2023-01-24T11:46:20;94132.97;;;8.28;51.97
39613;BME280;25303;48.896;13.342;2023-01-24T11:52:32;94122.56;;;8.29;51.67
39613;BME280;25303;48.896;13.342;2023-01-24T11:55:32;94120.94;;;8.28;51.88
39613;BME280;25303;48.896;13.342;2023-01-24T11:58:31;94120.13;;;8.28;51.59
39613;BME280;25303;48.896;13.342;2023-01-24T12:01:23;94113.16;;;8.30;51.88
39613;BME280;25303;48.896;13.342;2023-01-24T12:04:38;94108.72;;;8.32;51.52
39613;BME280;25303;48.896;13.342;2023-01-24T12:07:30;94108.16;;;8.40;51.86
39613;BME280;25303;48.896;13.342;2023-01-24T12:10:21;94104.13;;;8.48;51.93
39613;BME280;25303;48.896;13.342;2023-01-24T12:13:14;94099.38;;;8.55;51.89
39613;BME280;25303;48.896;13.342;2023-01-24T12:16:10;94102.16;;;8.63;51.66
39613;BME280;25303;48.896;13.342;2023-01-24T12:19:04;94098.44;;;8.68;51.44
39613;BME280;25303;48.896;13.342;2023-01-24T12:21:54;94093.78;;;8.73;51.60
39613;BME280;25303;48.896;13.342;2023-01-24T12:24:38;94095.09;;;8.78;51.44
39613;BME280;25303;48.896;13.342;2023-01-24T12:27:25;94084.69;;;8.80;51.32
39613;BME280;25303;48.896;13.342;2023-01-24T12:30:15;;;;8.84;
39613;BME280;25303;48.896;13.342;2023-01-24T12:33:05;94093.00;;;8.84;50.30
39613;BME280;25303;48.896;13.342;2023-01-24T12:35:55;94092.66;;;8.88;51.21
39613;BME280;25303;48.896;13.342;2023-01-24T12:38:44;94089.72;;;8.93;51.34
39613;BME280;25303;48.896;13.342;2023-01-24T12:41:31;94086.81;;;8.97;51.12
39613;BME280;25303;48.896;13.342;2023-01-24T12:44:23;94086.00;;;8.97;50.89
39613;BME280;25303;48.896;13.342;2023-01-24T12:47:19;94088.78;;;8.94;50.49
39613;BME280;25303;48.896;13.342;2023-01-24T12:50:20;94081.09;;;8.94;50.71
39613;BME280;25303;48.896;13.342;2023-01-24T12:53:10;94087.88;;;8.95;50.96
39613;BME280;25303;48.896;13.342;2023-01-24T12:55:59;94090.56;;;8.93;50.99
39613;BME280;25303;48.896;13.342;2023-01-24T12:58:47;94081.09;;;8.94;51.21
39613;BME280;25303;48.896;13.342;2023-01-24T13:01:45;94082.72;;;8.95;50.91
39613;BME280;25303;48.896;13.342;2023-01-24T13:04:40;94085.41;;;8.93;50.92
39613;BME280;25303;48.896;13.342;2023-01-24T13:07:32;94083.66;;;8.94;51.06
39613;BME280;25303;48.896;13.342;2023-01-24T13:10:27;94086.34;;;8.92;50.98
39613;BME280;25303;48.896;13.342;2023-01-24T13:13:21;94092.53;;;8.90;51.02
39613;BME280;25303;48.896;13.342;2023-01-24T13:16:28;94087.59;;;8.87;50.74
39613;BME280;25303;48.896;13.342;2023-01-24T13:19:21;94091.22;;;8.84;50.74
39613;BME280;25303;48.896;13.342;2023-01-24T13:22:24;94090.53;;;8.82;50.75
39613;BME280;25303;48.896;13.342;2023-01-24T13:25:24;94094.03;;;8.81;50.79
39613;BME280;25303;48.896;13.342;2023-01-24T13:28:20;94089.03;;;8.79;50.73
39613;BME280;25303;48.896;13.342;2023-01-24T13:31:12;94084.94;;;8.77;50.83
39613;BME280;25303;48.896;13.342;2023-01-24T13:34:00;94083.97;;;8.78;51.19
39613;BME280;25303;48.896;13.342;2023-01-24T13:36:47;94085.75;;;8.77;51.01
39613;BME280;25303;48.896;13.342;2023-01-24T13:39:34;94088.31;;;8.77;50.95
39613;BME280;25303;48.896;13.342;2023-01-24T13:42:21;94088.19;;;8.79;50.58
39613;BME280;25303;48.896;13.342;2023-01-24T13:48:54;94083.88;;;8.91;50.72
39613;BME280;25303;48.896;13.342;2023-01-24T13:51:43;94088.00;;;8.93;50.60
39613;BME280;25303;48.896;13.342;2023-01-24T13:54:35;94091.38;;;8.94;50.51
39613;BME280;25303;48.896;13.342;2023-01-24T13:57:21;94095.69;;;8.93;50.64
39613;BME280;25303;48.896;13.342;2023-01-24T14:00:24;94096.84;;;8.89;50.47
39613;BME280;25303;48.896;13.342;2023-01-24T14:03:16;94097.56;;;8.91;50.76
39613;BME280;25303;48.896;13.342;2023-01-24T14:06:13;94091.50;;;8.92;50.41
39613;BME280;25303;48.896;13.342;2023-01-24T14:09:12;94099.28;;;8.91;50.46
39613;BME280;25303;48.896;13.342;2023-01-24T14:11:57;94098.50;;;8.90;50.64
39613;BME280;25303;48.896;13.342;2023-01-24T14:15:00;94104.19;;;8.82;50.11
39613;BME280;25303;48.896;13.342;2023-01-24T14:17:48;94106.50;;;8.74;50.40
39613;BME280;25303;48.896;13.342;2023-01-24T14:20:38;94108.84;;;8.66;50.51
39613;BME280;25303;48.896;13.342;2023-01-24T14:23:26;94108.84;;;8.66;50.97
39613;BME280;25303;48.896;13.342;2023-01-24T14:26:14;94111.63;;;8.63;50.77
39613;BME280;25303;48.896;13.342;2023-01-24T14:29:01;94114.53;;;8.58;50.75
39613;BME280;25303;48.896;13.342;2023-01-24T14:31:46;94120.00;;;8.54;50.78
39613;BME280;25303;48.896;13.342;2023-01-24T14:34:37;94117.03;;;8.47;51.02
39613;BME280;25303;48.896;13.342;2023-01-24T14:37:24;94122.72;;;8.39;50.83
39613;BME280;25303;48.896;13.342;2023-01-24T14:40:19;94122.69;;;8.28;50.98
39613;BME280;25303;48.896;13.342;2023-01-24T14:43:04;94120.47;;;8.23;51.09
39613;BME280;25303;48.896;13.342;2023-01-24T14:45:47;94124.97;;;8.19;51.24
39613;BME280;25303;48.896;13.342;2023-01-24T14:48:31;94126.38;;;8.12;51.29
39613;BME280;25303;48.896;13.342;2023-01-24T14:51:17;94124.13;;;8.08;51.25
39613;BME280;25303;48.896;13.342;2023-01-24T14:54:00;94127.00;;;8.03;51.41
39613;BME280;25303;48.896;13.342;2023-01-24T14:56:44;94127.34;;;7.98;51.57